sensor_id;sensor_type;location;lat;lon;timestamp;pressure;altitude;pressure_sealevel;temperature;humidity
74218;BME280;62579;47.288;18.646;2022-11-18T00:02:18;98537.94;;;7.93;93.49
74218;BME280;62579;47.288;18.646;2022-11-18T00:04:43;98537.94;;;7.93;93.36
74218;BME280;62579;47.288;18.646;2022-11-18T00:07:08;98539.53;;;7.82;93.57
74218;BME280;62579;47.288;18.646;2022-11-18T00:09:33;98541.12;;;7.91;93.22
74218;BME280;62579;47.288;18.646;2022-11-18T00:11:58;98533.25;;;7.93;92.83
74218;BME280;62579;47.288;18.646;2022-11-18T00:14:42;98551.16;;;7.96;92.53
74218;BME280;62579;47.288;18.646;2022-11-18T00:17:08;98541.66;;;7.90;92.21
74218;BME280;62579;47.288;18.646;2022-11-18T00:19:37;98546.59;;;7.85;92.37
74218;BME280;62579;47.288;18.646;2022-11-18T00:22:03;98551.53;;;7.87;92.33
74218;BME280;62579;47.288;18.646;2022-11-18T00:24:28;98553.50;;;7.86;92.62
74218;BME280;62579;47.288;18.646;2022-11-18T00:26:54;98547.13;;;7.84;92.77
74218;BME280;62579;47.288;18.646;2022-11-18T00:29:19;98539.16;;;7.92;92.51
74218;BME280;62579;47.288;18.646;2022-11-18T00:31:45;98535.56;;;7.83;92.99
74218;BME280;62579;47.288;18.646;2022-11-18T00:34:11;98537.31;;;7.81;93.25
74218;BME280;62579;47.288;18.646;2022-11-18T00:36:37;98542.72;;;7.81;93.35
74218;BME280;62579;47.288;18.646;2022-11-18T00:39:02;98536.25;;;7.90;93.05
74218;BME280;62579;47.288;18.646;2022-11-18T00:41:28;98544.84;;;7.88;93.16
74218;BME280;62579;47.288;18.646;2022-11-18T00:44:13;98540.75;;;7.81;93.62
74218;BME280;62579;47.288;18.646;2022-11-18T00:46:38;98540.59;;;7.74;94.26
74218;BME280;62579;47.288;18.646;2022-11-18T00:49:04;98543.75;;;7.78;94.18
74218;BME280;62579;47.288;18.646;2022-11-18T00:51:29;98538.78;;;7.82;93.41
74218;BME280;62579;47.288;18.646;2022-11-18T00:53:54;98525.56;;;7.73;93.58
74218;BME280;62579;47.288;18.646;2022-11-18T00:56:19;98520.50;;;7.64;93.82
74218;BME280;62579;47.288;18.646;2022-11-18T00:58:44;98516.59;;;7.59;93.94
74218;BME280;62579;47.288;18.646;2022-11-18T01:01:10;98504.03;;;7.62;93.68
74218;BME280;62579;47.288;18.646;2022-11-18T01:03:35;98507.75;;;7.59;93.52
74218;BME280;62579;47.288;18.646;2022-11-18T01:06:00;98514.91;;;7.56;93.20
74218;BME280;62579;47.288;18.646;2022-11-18T01:08:25;98506.28;;;7.58;92.88
74218;BME280;62579;47.288;18.646;2022-11-18T01:10:50;98512.66;;;7.60;92.80
74218;BME280;62579;47.288;18.646;2022-11-18T01:13:17;98506.00;;;7.61;92.63
74218;BME280;62579;47.288;18.646;2022-11-18T01:15:49;98499.87;;;7.61;92.47
74218;BME280;62579;47.288;18.646;2022-11-18T01:18:15;98499.94;;;7.55;92.57
74218;BME280;62579;47.288;18.646;2022-11-18T01:20:41;98506.63;;;7.49;92.79
74218;BME280;62579;47.288;18.646;2022-11-18T01:23:06;98500.91;;;7.28;93.33
74218;BME280;62579;47.288;18.646;2022-11-18T01:25:31;98500.69;;;7.26;93.48
74218;BME280;62579;47.288;18.646;2022-11-18T01:27:57;98504.59;;;7.31;93.12
74218;BME280;62579;47.288;18.646;2022-11-18T01:30:22;98514.72;;;7.24;93.20
74218;BME280;62579;47.288;18.646;2022-11-18T01:32:47;98517.47;;;7.19;92.78
74218;BME280;62579;47.288;18.646;2022-11-18T01:35:13;98513.34;;;7.12;93.14
74218;BME280;62579;47.288;18.646;2022-11-18T01:37:38;98509.97;;;7.06;93.77
74218;BME280;62579;47.288;18.646;2022-11-18T01:40:04;98506.25;;;7.09;93.80
74218;BME280;62579;47.288;18.646;2022-11-18T01:42:30;98505.72;;;7.11;94.31
74218;BME280;62579;47.288;18.646;2022-11-18T01:44:57;98496.66;;;7.08;94.96
74218;BME280;62579;47.288;18.646;2022-11-18T01:47:23;98488.84;;;6.99;95.87
74218;BME280;62579;47.288;18.646;2022-11-18T01:49:49;98485.66;;;7.01;95.67
74218;BME280;62579;47.288;18.646;2022-11-18T01:52:14;98470.66;;;7.00;95.37
74218;BME280;62579;47.288;18.646;2022-11-18T01:54:42;98480.56;;;6.92;95.82
74218;BME280;62579;47.288;18.646;2022-11-18T01:57:11;98479.16;;;6.85;95.75
74218;BME280;62579;47.288;18.646;2022-11-18T01:59:38;98474.81;;;6.71;96.81
74218;BME280;62579;47.288;18.646;2022-11-18T02:02:07;98476.97;;;6.78;96.01
74218;BME280;62579;47.288;18.646;2022-11-18T02:04:33;98472.47;;;6.86;95.73
74218;BME280;62579;47.288;18.646;2022-11-18T02:06:58;98477.41;;;6.88;95.71
74218;BME280;62579;47.288;18.646;2022-11-18T02:09:23;98474.00;;;6.82;96.41
74218;BME280;62579;47.288;18.646;2022-11-18T02:11:48;98481.16;;;6.79;96.38
74218;BME280;62579;47.288;18.646;2022-11-18T02:14:21;98480.16;;;6.82;95.73
74218;BME280;62579;47.288;18.646;2022-11-18T02:19:19;98477.75;;;6.73;95.72
74218;BME280;62579;47.288;18.646;2022-11-18T02:29:20;98447.88;;;6.90;96.45
74218;BME280;62579;47.288;18.646;2022-11-18T02:39:08;98409.41;;;7.02;94.98
74218;BME280;62579;47.288;18.646;2022-11-18T02:41:34;98408.97;;;6.98;94.83
74218;BME280;62579;47.288;18.646;2022-11-18T02:44:08;98405.00;;;6.99;94.98
74218;BME280;62579;47.288;18.646;2022-11-18T02:46:36;98404.03;;;6.97;95.19
74218;BME280;62579;47.288;18.646;2022-11-18T02:49:04;98403.09;;;6.94;95.63
74218;BME280;62579;47.288;18.646;2022-11-18T02:51:31;98411.66;;;6.98;95.16
74218;BME280;62579;47.288;18.646;2022-11-18T02:54:02;98413.13;;;6.99;94.20
74218;BME280;62579;47.288;18.646;2022-11-18T02:56:29;98419.59;;;6.91;94.64
74218;BME280;62579;47.288;18.646;2022-11-18T02:58:55;98421.94;;;6.76;95.54
74218;BME280;62579;47.288;18.646;2022-11-18T03:01:22;98420.00;;;6.71;95.62
74218;BME280;62579;47.288;18.646;2022-11-18T03:03:48;98428.63;;;6.69;95.60
74218;BME280;62579;47.288;18.646;2022-11-18T03:06:26;98443.19;;;6.60;96.04
74218;BME280;62579;47.288;18.646;2022-11-18T03:11:38;98450.25;;;6.69;95.89
74218;BME280;62579;47.288;18.646;2022-11-18T03:16:57;98444.84;;;6.69;95.51
74218;BME280;62579;47.288;18.646;2022-11-18T03:24:35;98465.75;;;6.69;96.31
74218;BME280;62579;47.288;18.646;2022-11-18T03:27:05;98451.16;;;6.83;95.79
74218;BME280;62579;47.288;18.646;2022-11-18T03:29:36;98444.13;;;6.69;97.52
74218;BME280;62579;47.288;18.646;2022-11-18T03:32:05;98448.19;;;6.81;96.93
74218;BME280;62579;47.288;18.646;2022-11-18T03:34:48;98445.47;;;6.81;96.48
74218;BME280;62579;47.288;18.646;2022-11-18T03:37:16;98443.53;;;6.81;96.63
74218;BME280;62579;47.288;18.646;2022-11-18T03:39:44;98455.53;;;6.86;96.45
74218;BME280;62579;47.288;18.646;2022-11-18T03:42:13;98457.50;;;6.85;96.54
74218;BME280;62579;47.288;18.646;2022-11-18T03:44:40;98457.69;;;6.93;96.25
74218;BME280;62579;47.288;18.646;2022-11-18T03:47:08;98457.22;;;6.89;96.51
74218;BME280;62579;47.288;18.646;2022-11-18T03:49:42;98446.44;;;6.83;96.83
74218;BME280;62579;47.288;18.646;2022-11-18T03:52:13;98446.91;;;6.87;96.71
74218;BME280;62579;47.288;18.646;2022-11-18T03:54:39;98433.94;;;7.10;95.15
74218;BME280;62579;47.288;18.646;2022-11-18T03:57:07;98430.44;;;7.15;94.80
74218;BME280;62579;47.288;18.646;2022-11-18T03:59:37;98428.81;;;7.06;95.09
74218;BME280;62579;47.288;18.646;2022-11-18T04:02:21;98423.66;;;7.03;95.62
74218;BME280;62579;47.288;18.646;2022-11-18T04:04:48;98416.69;;;7.13;95.09
74218;BME280;62579;47.288;18.646;2022-11-18T04:07:20;98398.25;;;7.11;95.45
74218;BME280;62579;47.288;18.646;2022-11-18T04:09:50;98393.13;;;7.08;95.61
74218;BME280;62579;47.288;18.646;2022-11-18T04:12:18;98388.28;;;7.01;96.29
74218;BME280;62579;47.288;18.646;2022-11-18T04:14:45;98375.44;;;7.07;96.18
74218;BME280;62579;47.288;18.646;2022-11-18T04:17:15;98367.66;;;6.98;97.55
74218;BME280;62579;47.288;18.646;2022-11-18T04:19:40;98376.16;;;6.83;99.16
74218;BME280;62579;47.288;18.646;2022-11-18T04:22:05;98377.75;;;6.97;98.65
74218;BME280;62579;47.288;18.646;2022-11-18T04:24:31;98377.41;;;7.06;98.17
74218;BME280;62579;47.288;18.646;2022-11-18T04:26:57;98382.56;;;7.10;98.22
74218;BME280;62579;47.288;18.646;2022-11-18T04:29:22;98386.88;;;7.18;98.15
74218;BME280;62579;47.288;18.646;2022-11-18T04:31:48;98377.25;;;7.23;97.93
74218;BME280;62579;47.288;18.646;2022-11-18T04:34:13;98366.69;;;7.19;98.46
74218;BME280;62579;47.288;18.646;2022-11-18T04:36:38;98387.22;;;7.09;99.43
74218;BME280;62579;47.288;18.646;2022-11-18T04:39:04;98395.16;;;7.26;98.70
74218;BME280;62579;47.288;18.646;2022-11-18T04:41:29;98408.13;;;7.33;98.27
74218;BME280;62579;47.288;18.646;2022-11-18T04:44:13;98409.34;;;7.32;98.07
74218;BME280;62579;47.288;18.646;2022-11-18T04:46:39;98417.72;;;7.34;97.99
74218;BME280;62579;47.288;18.646;2022-11-18T04:49:05;98423.56;;;7.38;97.86
74218;BME280;62579;47.288;18.646;2022-11-18T04:51:30;98424.78;;;7.37;97.66
74218;BME280;62579;47.288;18.646;2022-11-18T04:53:55;98408.28;;;7.41;97.58
74218;BME280;62579;47.288;18.646;2022-11-18T04:56:20;98401.13;;;7.43;97.55
74218;BME280;62579;47.288;18.646;2022-11-18T04:58:45;98404.78;;;7.46;97.46
74218;BME280;62579;47.288;18.646;2022-11-18T05:01:11;98409.97;;;7.44;97.81
74218;BME280;62579;47.288;18.646;2022-11-18T05:03:36;98405.97;;;7.50;97.82
74218;BME280;62579;47.288;18.646;2022-11-18T05:06:01;98405.25;;;7.50;98.00
74218;BME280;62579;47.288;18.646;2022-11-18T05:08:26;98411.81;;;7.54;97.62
74218;BME280;62579;47.288;18.646;2022-11-18T05:10:52;98399.81;;;7.50;97.88
74218;BME280;62579;47.288;18.646;2022-11-18T05:13:37;98386.34;;;7.44;98.29
74218;BME280;62579;47.288;18.646;2022-11-18T05:16:02;98388.94;;;7.55;97.94
74218;BME280;62579;47.288;18.646;2022-11-18T05:18:27;98386.13;;;7.42;98.17
74218;BME280;62579;47.288;18.646;2022-11-18T05:20:52;98368.81;;;7.26;98.82
74218;BME280;62579;47.288;18.646;2022-11-18T05:23:17;98369.63;;;7.21;99.24
74218;BME280;62579;47.288;18.646;2022-11-18T05:25:43;98379.44;;;7.24;98.87
74218;BME280;62579;47.288;18.646;2022-11-18T05:28:08;98381.56;;;7.32;98.74
74218;BME280;62579;47.288;18.646;2022-11-18T05:30:33;98368.59;;;7.24;98.89
74218;BME280;62579;47.288;18.646;2022-11-18T05:32:58;98378.84;;;7.32;98.65
74218;BME280;62579;47.288;18.646;2022-11-18T05:35:23;98380.09;;;7.31;98.54
74218;BME280;62579;47.288;18.646;2022-11-18T05:37:48;98393.78;;;7.38;98.29
74218;BME280;62579;47.288;18.646;2022-11-18T05:40:14;98391.16;;;7.33;98.50
74218;BME280;62579;47.288;18.646;2022-11-18T05:42:39;98384.72;;;7.36;98.35
74218;BME280;62579;47.288;18.646;2022-11-18T05:45:23;98381.44;;;7.43;98.17
74218;BME280;62579;47.288;18.646;2022-11-18T05:47:48;98372.31;;;7.46;97.93
74218;BME280;62579;47.288;18.646;2022-11-18T05:50:27;98371.56;;;7.45;98.02
74218;BME280;62579;47.288;18.646;2022-11-18T05:52:53;98371.81;;;7.47;98.10
74218;BME280;62579;47.288;18.646;2022-11-18T05:55:18;98376.19;;;7.50;97.95
74218;BME280;62579;47.288;18.646;2022-11-18T05:57:44;98373.03;;;7.46;98.32
74218;BME280;62579;47.288;18.646;2022-11-18T06:00:10;98381.38;;;7.48;98.21
74218;BME280;62579;47.288;18.646;2022-11-18T06:02:35;98378.37;;;7.52;98.00
74218;BME280;62579;47.288;18.646;2022-11-18T06:05:01;98370.97;;;7.34;99.08
74218;BME280;62579;47.288;18.646;2022-11-18T06:07:37;98365.25;;;7.37;99.13
74218;BME280;62579;47.288;18.646;2022-11-18T06:10:03;98353.75;;;7.55;98.18
74218;BME280;62579;47.288;18.646;2022-11-18T06:12:29;98345.63;;;7.55;97.83
74218;BME280;62579;47.288;18.646;2022-11-18T06:14:56;98345.75;;;7.44;98.44
74218;BME280;62579;47.288;18.646;2022-11-18T06:17:27;98348.31;;;7.37;98.95
74218;BME280;62579;47.288;18.646;2022-11-18T06:19:55;98351.28;;;7.33;99.27
74218;BME280;62579;47.288;18.646;2022-11-18T06:22:20;98353.19;;;7.38;99.19
74218;BME280;62579;47.288;18.646;2022-11-18T06:24:46;98353.00;;;7.36;99.51
74218;BME280;62579;47.288;18.646;2022-11-18T06:27:11;98362.06;;;7.39;99.43
74218;BME280;62579;47.288;18.646;2022-11-18T06:29:37;98369.13;;;7.84;100.00
74218;BME280;62579;47.288;18.646;2022-11-18T06:32:03;98385.87;;;7.83;99.55
74218;BME280;62579;47.288;18.646;2022-11-18T06:34:28;98383.16;;;7.83;98.42
74218;BME280;62579;47.288;18.646;2022-11-18T06:36:53;98375.19;;;7.91;97.96
74218;BME280;62579;47.288;18.646;2022-11-18T06:39:19;98373.94;;;7.73;98.29
74218;BME280;62579;47.288;18.646;2022-11-18T06:41:45;98366.16;;;7.64;99.13
74218;BME280;62579;47.288;18.646;2022-11-18T06:44:10;98376.34;;;7.58;99.67
74218;BME280;62579;47.288;18.646;2022-11-18T06:46:39;98374.53;;;7.66;99.27
74218;BME280;62579;47.288;18.646;2022-11-18T06:49:19;98378.53;;;7.78;98.86
74218;BME280;62579;47.288;18.646;2022-11-18T06:51:45;98382.00;;;7.78;98.95
74218;BME280;62579;47.288;18.646;2022-11-18T06:54:10;98390.91;;;7.73;99.18
74218;BME280;62579;47.288;18.646;2022-11-18T06:56:35;98388.28;;;7.86;98.96
74218;BME280;62579;47.288;18.646;2022-11-18T06:59:00;98381.56;;;7.74;99.55
74218;BME280;62579;47.288;18.646;2022-11-18T07:01:26;98382.22;;;7.80;99.67
74218;BME280;62579;47.288;18.646;2022-11-18T07:03:52;98382.06;;;7.73;99.61
74218;BME280;62579;47.288;18.646;2022-11-18T07:06:19;98383.00;;;7.75;99.72
74218;BME280;62579;47.288;18.646;2022-11-18T07:08:44;98379.41;;;7.67;100.00
74218;BME280;62579;47.288;18.646;2022-11-18T07:11:11;98378.69;;;7.67;100.00
74218;BME280;62579;47.288;18.646;2022-11-18T07:13:37;98376.84;;;7.75;100.00
74218;BME280;62579;47.288;18.646;2022-11-18T07:18:28;98389.44;;;7.91;99.81
74218;BME280;62579;47.288;18.646;2022-11-18T07:20:53;98389.44;;;7.91;100.00
74218;BME280;62579;47.288;18.646;2022-11-18T07:23:19;98390.56;;;8.01;99.49
74218;BME280;62579;47.288;18.646;2022-11-18T07:25:44;98387.94;;;7.96;99.74
74218;BME280;62579;47.288;18.646;2022-11-18T07:28:09;98378.84;;;7.93;99.58
74218;BME280;62579;47.288;18.646;2022-11-18T07:30:34;98371.91;;;7.79;100.00
74218;BME280;62579;47.288;18.646;2022-11-18T07:32:59;98364.44;;;7.66;100.00
74218;BME280;62579;47.288;18.646;2022-11-18T07:35:25;98362.22;;;7.65;100.00
74218;BME280;62579;47.288;18.646;2022-11-18T07:37:50;98353.28;;;7.70;100.00
74218;BME280;62579;47.288;18.646;2022-11-18T07:40:15;98346.19;;;7.67;100.00
74218;BME280;62579;47.288;18.646;2022-11-18T07:42:40;98346.72;;;7.65;100.00
74218;BME280;62579;47.288;18.646;2022-11-18T07:45:09;98337.78;;;7.70;100.00
74218;BME280;62579;47.288;18.646;2022-11-18T07:47:34;98339.25;;;7.71;100.00
74218;BME280;62579;47.288;18.646;2022-11-18T07:50:00;98333.03;;;7.76;100.00
74218;BME280;62579;47.288;18.646;2022-11-18T07:52:25;98336.47;;;7.77;100.00
74218;BME280;62579;47.288;18.646;2022-11-18T07:54:50;98343.12;;;7.76;100.00
74218;BME280;62579;47.288;18.646;2022-11-18T07:57:15;98345.09;;;7.75;100.00
74218;BME280;62579;47.288;18.646;2022-11-18T07:59:40;98344.97;;;7.68;100.00
74218;BME280;62579;47.288;18.646;2022-11-18T08:02:06;98337.25;;;7.72;100.00
74218;BME280;62579;47.288;18.646;2022-11-18T08:04:31;98338.00;;;7.72;100.00
74218;BME280;62579;47.288;18.646;2022-11-18T08:06:57;98339.47;;;7.73;100.00
74218;BME280;62579;47.288;18.646;2022-11-18T08:09:22;98334.66;;;7.66;100.00
74218;BME280;62579;47.288;18.646;2022-11-18T08:11:47;98341.72;;;7.69;100.00
74218;BME280;62579;47.288;18.646;2022-11-18T08:14:12;98324.91;;;7.76;100.00
74218;BME280;62579;47.288;18.646;2022-11-18T08:16:37;98328.12;;;7.75;100.00
74218;BME280;62579;47.288;18.646;2022-11-18T08:19:02;98329.00;;;7.83;100.00
74218;BME280;62579;47.288;18.646;2022-11-18T08:21:28;98321.38;;;7.81;100.00
74218;BME280;62579;47.288;18.646;2022-11-18T08:23:54;98317.88;;;7.86;100.00
74218;BME280;62579;47.288;18.646;2022-11-18T08:26:19;98318.75;;;7.76;100.00
74218;BME280;62579;47.288;18.646;2022-11-18T08:28:45;98310.78;;;7.83;100.00
74218;BME280;62579;47.288;18.646;2022-11-18T08:33:36;98315.69;;;7.85;100.00
74218;BME280;62579;47.288;18.646;2022-11-18T08:36:05;98313.47;;;7.83;100.00
74218;BME280;62579;47.288;18.646;2022-11-18T08:38:31;98305.66;;;7.80;100.00
74218;BME280;62579;47.288;18.646;2022-11-18T08:40:56;98304.47;;;7.75;100.00
74218;BME280;62579;47.288;18.646;2022-11-18T08:43:22;98299.72;;;7.81;100.00
74218;BME280;62579;47.288;18.646;2022-11-18T08:45:47;98292.53;;;7.84;100.00
74218;BME280;62579;47.288;18.646;2022-11-18T08:48:12;98295.19;;;7.90;100.00
74218;BME280;62579;47.288;18.646;2022-11-18T08:50:37;98294.72;;;7.85;100.00
74218;BME280;62579;47.288;18.646;2022-11-18T08:53:03;98299.94;;;7.83;100.00
74218;BME280;62579;47.288;18.646;2022-11-18T08:55:28;98302.78;;;7.91;100.00
74218;BME280;62579;47.288;18.646;2022-11-18T08:57:53;98301.00;;;7.94;100.00
74218;BME280;62579;47.288;18.646;2022-11-18T09:00:18;98298.53;;;7.96;100.00
74218;BME280;62579;47.288;18.646;2022-11-18T09:02:43;98292.97;;;8.07;100.00
74218;BME280;62579;47.288;18.646;2022-11-18T09:05:09;98301.37;;;8.03;100.00
74218;BME280;62579;47.288;18.646;2022-11-18T09:07:34;98284.84;;;8.07;100.00
74218;BME280;62579;47.288;18.646;2022-11-18T09:09:59;98284.06;;;7.93;100.00
74218;BME280;62579;47.288;18.646;2022-11-18T09:12:24;98270.63;;;8.01;100.00
74218;BME280;62579;47.288;18.646;2022-11-18T09:14:50;98274.00;;;8.07;99.95
74218;BME280;62579;47.288;18.646;2022-11-18T09:17:15;98273.84;;;7.99;99.98
74218;BME280;62579;47.288;18.646;2022-11-18T09:19:40;98273.56;;;8.03;99.62
74218;BME280;62579;47.288;18.646;2022-11-18T09:22:06;98265.22;;;8.01;100.00
74218;BME280;62579;47.288;18.646;2022-11-18T09:24:31;98258.69;;;8.09;100.00
74218;BME280;62579;47.288;18.646;2022-11-18T09:26:57;98261.59;;;8.11;100.00
74218;BME280;62579;47.288;18.646;2022-11-18T09:29:22;98260.09;;;8.29;99.13
74218;BME280;62579;47.288;18.646;2022-11-18T09:31:50;98259.34;;;8.28;99.58
74218;BME280;62579;47.288;18.646;2022-11-18T09:34:15;98255.19;;;8.27;99.23
74218;BME280;62579;47.288;18.646;2022-11-18T09:36:41;98266.72;;;8.15;100.00
74218;BME280;62579;47.288;18.646;2022-11-18T09:39:06;98262.53;;;8.14;100.00
74218;BME280;62579;47.288;18.646;2022-11-18T09:49:01;98247.34;;;8.24;100.00
74218;BME280;62579;47.288;18.646;2022-11-18T09:51:43;98246.19;;;8.19;99.93
74218;BME280;62579;47.288;18.646;2022-11-18T09:54:10;98236.00;;;8.25;100.00
74218;BME280;62579;47.288;18.646;2022-11-18T09:56:38;98230.16;;;8.21;100.00
74218;BME280;62579;47.288;18.646;2022-11-18T09:59:03;98223.00;;;8.37;100.00
74218;BME280;62579;47.288;18.646;2022-11-18T10:01:29;98225.28;;;8.33;100.00
74218;BME280;62579;47.288;18.646;2022-11-18T10:03:55;98226.28;;;8.17;100.00
74218;BME280;62579;47.288;18.646;2022-11-18T10:06:23;98218.03;;;8.09;100.00
74218;BME280;62579;47.288;18.646;2022-11-18T10:11:23;98216.87;;;8.18;100.00
74218;BME280;62579;47.288;18.646;2022-11-18T10:21:37;98212.25;;;8.31;100.00
74218;BME280;62579;47.288;18.646;2022-11-18T10:24:13;98207.06;;;8.33;100.00
74218;BME280;62579;47.288;18.646;2022-11-18T10:26:41;98205.03;;;8.21;100.00
74218;BME280;62579;47.288;18.646;2022-11-18T10:29:07;98206.50;;;8.22;100.00
74218;BME280;62579;47.288;18.646;2022-11-18T10:31:38;98208.75;;;8.18;100.00
74218;BME280;62579;47.288;18.646;2022-11-18T10:34:04;98198.88;;;8.20;100.00
74218;BME280;62579;47.288;18.646;2022-11-18T10:36:30;98192.03;;;8.32;100.00
74218;BME280;62579;47.288;18.646;2022-11-18T10:39:31;98204.84;;;8.32;100.00
74218;BME280;62579;47.288;18.646;2022-11-18T10:41:55;98204.56;;;8.35;100.00
74218;BME280;62579;47.288;18.646;2022-11-18T10:44:31;98206.44;;;8.54;100.00
74218;BME280;62579;47.288;18.646;2022-11-18T10:57:20;98209.69;;;8.39;100.00
74218;BME280;62579;47.288;18.646;2022-11-18T10:59:54;98211.25;;;8.16;100.00
74218;BME280;62579;47.288;18.646;2022-11-18T11:02:34;98208.84;;;8.12;100.00
74218;BME280;62579;47.288;18.646;2022-11-18T11:05:16;98214.81;;;8.24;100.00
74218;BME280;62579;47.288;18.646;2022-11-18T11:07:43;98214.75;;;8.42;100.00
74218;BME280;62579;47.288;18.646;2022-11-18T11:12:59;98221.25;;;8.66;98.83
74218;BME280;62579;47.288;18.646;2022-11-18T11:15:38;98214.03;;;8.81;97.26
74218;BME280;62579;47.288;18.646;2022-11-18T11:18:13;98211.25;;;8.74;97.96
74218;BME280;62579;47.288;18.646;2022-11-18T11:21:00;98214.56;;;8.67;99.18
74218;BME280;62579;47.288;18.646;2022-11-18T11:23:26;98204.97;;;8.79;98.59
74218;BME280;62579;47.288;18.646;2022-11-18T11:26:00;98198.28;;;8.67;99.38
74218;BME280;62579;47.288;18.646;2022-11-18T11:28:33;98190.69;;;8.65;99.06
74218;BME280;62579;47.288;18.646;2022-11-18T11:34:03;98190.59;;;8.71;98.84
74218;BME280;62579;47.288;18.646;2022-11-18T11:36:42;98185.97;;;8.79;97.96
74218;BME280;62579;47.288;18.646;2022-11-18T11:41:46;98191.41;;;8.79;98.57
74218;BME280;62579;47.288;18.646;2022-11-18T11:44:34;98193.69;;;8.88;97.83
74218;BME280;62579;47.288;18.646;2022-11-18T11:50:40;98199.63;;;8.86;97.77
74218;BME280;62579;47.288;18.646;2022-11-18T11:56:02;98213.31;;;8.81;97.90
74218;BME280;62579;47.288;18.646;2022-11-18T12:06:32;98194.34;;;8.68;97.58
74218;BME280;62579;47.288;18.646;2022-11-18T12:09:07;98183.38;;;8.73;97.43
74218;BME280;62579;47.288;18.646;2022-11-18T12:11:45;98182.31;;;8.89;96.82
74218;BME280;62579;47.288;18.646;2022-11-18T12:14:40;98177.81;;;8.92;96.52
74218;BME280;62579;47.288;18.646;2022-11-18T12:17:29;98183.88;;;8.85;97.11
74218;BME280;62579;47.288;18.646;2022-11-18T12:19:56;98178.03;;;8.94;96.80
74218;BME280;62579;47.288;18.646;2022-11-18T12:22:21;98176.56;;;8.93;96.71
74218;BME280;62579;47.288;18.646;2022-11-18T12:24:47;98180.34;;;8.77;97.35
74218;BME280;62579;47.288;18.646;2022-11-18T12:29:56;98168.44;;;8.80;97.83
74218;BME280;62579;47.288;18.646;2022-11-18T12:32:39;98159.91;;;8.76;97.48
74218;BME280;62579;47.288;18.646;2022-11-18T12:42:59;98173.97;;;8.74;96.97
74218;BME280;62579;47.288;18.646;2022-11-18T12:50:59;98185.34;;;8.86;96.97
74218;BME280;62579;47.288;18.646;2022-11-18T12:53:32;98187.31;;;8.85;96.74
74218;BME280;62579;47.288;18.646;2022-11-18T12:55:59;98189.44;;;8.79;96.79
74218;BME280;62579;47.288;18.646;2022-11-18T12:58:33;98194.63;;;8.77;97.17
74218;BME280;62579;47.288;18.646;2022-11-18T13:01:04;98198.41;;;8.87;96.53
74218;BME280;62579;47.288;18.646;2022-11-18T13:03:30;98205.16;;;8.81;96.74
74218;BME280;62579;47.288;18.646;2022-11-18T13:06:01;98206.22;;;8.78;96.79
74218;BME280;62579;47.288;18.646;2022-11-18T13:08:29;98200.38;;;8.74;96.92
74218;BME280;62579;47.288;18.646;2022-11-18T13:10:57;98202.25;;;8.79;96.78
74218;BME280;62579;47.288;18.646;2022-11-18T13:13:45;98202.03;;;8.77;96.67
74218;BME280;62579;47.288;18.646;2022-11-18T13:16:18;98209.78;;;8.73;96.53
74218;BME280;62579;47.288;18.646;2022-11-18T13:19:03;98207.25;;;8.88;96.04
74218;BME280;62579;47.288;18.646;2022-11-18T13:21:28;98216.03;;;8.68;97.22
74218;BME280;62579;47.288;18.646;2022-11-18T13:24:14;98214.75;;;8.69;96.82
74218;BME280;62579;47.288;18.646;2022-11-18T13:26:42;98221.47;;;8.68;96.95
74218;BME280;62579;47.288;18.646;2022-11-18T13:29:25;98223.03;;;8.63;97.55
74218;BME280;62579;47.288;18.646;2022-11-18T13:32:00;98230.72;;;8.59;97.36
74218;BME280;62579;47.288;18.646;2022-11-18T13:34:28;98230.84;;;8.67;97.08
74218;BME280;62579;47.288;18.646;2022-11-18T13:36:57;98231.66;;;8.62;97.52
74218;BME280;62579;47.288;18.646;2022-11-18T13:42:03;98219.78;;;8.65;97.59
74218;BME280;62579;47.288;18.646;2022-11-18T13:44:31;98211.22;;;8.61;97.88
74218;BME280;62579;47.288;18.646;2022-11-18T13:49:58;98193.59;;;8.67;97.35
74218;BME280;62579;47.288;18.646;2022-11-18T13:52:31;98193.91;;;8.64;97.64
74218;BME280;62579;47.288;18.646;2022-11-18T13:54:59;98198.19;;;8.72;97.10
74218;BME280;62579;47.288;18.646;2022-11-18T13:57:27;98191.72;;;8.62;97.49
74218;BME280;62579;47.288;18.646;2022-11-18T13:59:53;98198.19;;;8.59;97.60
74218;BME280;62579;47.288;18.646;2022-11-18T14:02:20;98207.81;;;8.60;97.54
74218;BME280;62579;47.288;18.646;2022-11-18T14:04:54;98212.06;;;8.56;97.56
74218;BME280;62579;47.288;18.646;2022-11-18T14:10:03;98218.50;;;8.53;97.71
74218;BME280;62579;47.288;18.646;2022-11-18T14:12:31;98225.59;;;8.42;98.06
74218;BME280;62579;47.288;18.646;2022-11-18T14:15:15;98217.81;;;8.52;97.58
74218;BME280;62579;47.288;18.646;2022-11-18T14:17:53;98222.69;;;8.54;97.67
74218;BME280;62579;47.288;18.646;2022-11-18T14:20:19;98231.22;;;8.44;98.12
74218;BME280;62579;47.288;18.646;2022-11-18T14:22:46;98222.06;;;8.48;98.23
74218;BME280;62579;47.288;18.646;2022-11-18T14:25:21;98226.34;;;8.56;97.57
74218;BME280;62579;47.288;18.646;2022-11-18T14:27:49;98221.56;;;8.49;97.64
74218;BME280;62579;47.288;18.646;2022-11-18T14:30:25;98231.34;;;8.39;98.43
74218;BME280;62579;47.288;18.646;2022-11-18T14:33:17;98226.66;;;8.39;98.26
74218;BME280;62579;47.288;18.646;2022-11-18T14:36:26;98221.03;;;8.51;97.71
74218;BME280;62579;47.288;18.646;2022-11-18T14:38:48;98210.72;;;8.49;97.39
74218;BME280;62579;47.288;18.646;2022-11-18T14:41:16;98216.34;;;8.51;97.27
74218;BME280;62579;47.288;18.646;2022-11-18T14:44:05;98211.75;;;8.46;97.49
74218;BME280;62579;47.288;18.646;2022-11-18T14:46:32;98208.75;;;8.50;97.42
74218;BME280;62579;47.288;18.646;2022-11-18T14:49:01;98214.56;;;8.54;96.54
74218;BME280;62579;47.288;18.646;2022-11-18T14:51:26;98216.63;;;8.61;96.53
74218;BME280;62579;47.288;18.646;2022-11-18T14:53:52;98216.03;;;8.55;96.58